Time;durP1;ratioP1;P1;durP2;ratioP2;P2;SDS_P1;SDS_P2;PMS_P1;PMS_P2;Temp;Humidity;BMP_temperature;BMP_pressure;BME280_temperature;BME280_humidity;BME280_pressure;Samples;Min_cycle;Max_cycle;Signal;HPM_P1;HPM_P2
2022/06/29 00:02:23;;;;;;;5.00;4.60;;;;;;;18.47;100.00;98039.78;5055312;28;20222;-71
2022/06/29 00:04:50;;;;;;;4.73;4.27;;;;;;;18.42;100.00;98035.94;5055361;28;20227;-71
2022/06/29 00:07:16;;;;;;;5.00;4.50;;;;;;;18.35;100.00;98035.69;5055346;28;20222;-71
2022/06/29 00:09:43;;;;;;;4.90;4.50;;;;;;;18.29;100.00;98028.25;5055258;28;20561;-71
2022/06/29 00:12:10;;;;;;;5.00;4.60;;;;;;;18.25;100.00;98029.59;5053047;28;21659;-71
2022/06/29 00:14:42;;;;;;;5.37;4.57;;;;;;;18.18;100.00;98025.88;5054920;28;20690;-71
2022/06/29 00:17:09;;;;;;;5.10;4.70;;;;;;;18.15;100.00;98020.81;5055019;28;20247;-71
2022/06/29 00:19:36;;;;;;;5.07;4.67;;;;;;;18.14;100.00;98015.59;5053951;28;20208;-71
2022/06/29 00:22:03;;;;;;;4.67;4.30;;;;;;;18.12;100.00;98023.81;5054967;28;20216;-71
2022/06/29 00:24:30;;;;;;;4.87;4.47;;;;;;;18.10;100.00;98012.41;5054957;28;20569;-71
2022/06/29 00:26:57;;;;;;;4.97;4.57;;;;;;;18.07;100.00;98010.06;5054529;28;20223;-71
2022/06/29 00:29:23;;;;;;;5.70;5.07;;;;;;;18.08;100.00;98005.53;5054479;28;20697;-70
2022/06/29 00:31:51;;;;;;;5.23;4.73;;;;;;;18.02;100.00;97993.63;5054723;28;20238;-71
2022/06/29 00:34:18;;;;;;;4.70;4.30;;;;;;;17.99;100.00;97996.59;5054808;28;20215;-70
2022/06/29 00:36:45;;;;;;;5.10;4.70;;;;;;;17.93;100.00;97986.53;5053134;28;20220;-70
2022/06/29 00:39:12;;;;;;;4.83;4.43;;;;;;;17.86;100.00;97990.00;5054638;28;20212;-71
2022/06/29 00:41:39;;;;;;;5.10;4.70;;;;;;;17.84;100.00;97983.94;5054503;28;20212;-71
2022/06/29 00:44:07;;;;;;;5.00;4.60;;;;;;;17.79;100.00;97981.72;5054266;28;20220;-71
2022/06/29 00:46:34;;;;;;;5.60;5.10;;;;;;;17.73;100.00;97981.53;5054274;28;20212;-71
2022/06/29 00:49:02;;;;;;;5.40;5.00;;;;;;;17.62;100.00;97981.75;5054572;28;20216;-71
2022/06/29 00:51:31;;;;;;;5.40;4.90;;;;;;;17.52;100.00;97987.19;5054316;28;20236;-70
2022/06/29 00:54:00;;;;;;;5.20;4.80;;;;;;;17.46;100.00;97979.78;5054367;28;20212;-71
2022/06/29 00:56:28;;;;;;;6.07;5.57;;;;;;;17.41;100.00;97979.38;5054088;28;20216;-70
2022/06/29 00:58:56;;;;;;;6.33;5.73;;;;;;;17.39;100.00;97976.03;5053960;28;20295;-70
2022/06/29 01:01:22;;;;;;;6.53;5.93;;;;;;;17.35;100.00;97973.75;5054180;28;20219;-71
2022/06/29 01:03:49;;;;;;;6.37;5.40;;;;;;;17.30;100.00;97982.22;5052534;28;20216;-70
2022/06/29 01:06:17;;;;;;;6.17;5.67;;;;;;;17.26;100.00;97980.03;5054092;28;20208;-71
2022/06/29 01:08:43;;;;;;;5.80;5.30;;;;;;;17.22;100.00;97974.16;5054031;28;20220;-70
2022/06/29 01:11:10;;;;;;;6.43;5.83;;;;;;;17.18;100.00;97978.09;5053632;28;20316;-70
2022/06/29 01:13:42;;;;;;;6.20;5.70;;;;;;;17.18;100.00;97972.75;5054022;28;20214;-70
2022/06/29 01:16:09;;;;;;;6.10;5.60;;;;;;;17.19;100.00;97969.09;5053690;28;20771;-70
2022/06/29 01:18:36;;;;;;;6.73;6.17;;;;;;;17.21;100.00;97972.47;5053891;28;20254;-70
2022/06/29 01:21:04;;;;;;;6.70;6.10;;;;;;;17.21;100.00;97975.13;5053484;28;20220;-70
2022/06/29 01:23:32;;;;;;;6.70;6.10;;;;;;;17.21;100.00;97963.59;5053754;28;20218;-70
2022/06/29 01:26:04;;;;;;;6.20;5.70;;;;;;;17.25;100.00;97973.81;5053828;28;20212;-70
2022/06/29 01:28:31;;;;;;;5.77;5.37;;;;;;;17.30;100.00;97976.88;5053667;28;20245;-70
2022/06/29 01:30:57;;;;;;;6.10;5.43;;;;;;;17.26;100.00;97975.50;5052031;28;20215;-70
2022/06/29 01:33:24;;;;;;;5.93;5.43;;;;;;;17.27;100.00;97979.88;5053330;28;20236;-70
2022/06/29 01:35:50;;;;;;;6.30;5.80;;;;;;;17.28;100.00;97978.88;5053775;28;20214;-70
2022/06/29 01:38:17;;;;;;;6.20;5.70;;;;;;;17.29;100.00;97977.03;5053701;28;20251;-70
2022/06/29 01:40:45;;;;;;;6.73;6.13;;;;;;;17.24;100.00;97985.50;5053232;28;20223;-70
2022/06/29 01:43:11;;;;;;;7.27;6.10;;;;;;;17.19;100.00;97985.13;5053320;28;20306;-70
2022/06/29 01:45:38;;;;;;;6.30;5.80;;;;;;;17.15;100.00;97986.44;5053545;28;21340;-71
2022/06/29 01:48:05;;;;;;;6.57;5.97;;;;;;;17.13;100.00;97990.22;5053514;28;20212;-71
2022/06/29 01:50:32;;;;;;;6.50;5.90;;;;;;;17.11;100.00;97995.72;5053433;28;20211;-71
2022/06/29 01:52:58;;;;;;;6.73;6.13;;;;;;;17.16;100.00;98004.13;5053294;28;20242;-71
2022/06/29 01:55:25;;;;;;;6.40;5.80;;;;;;;17.17;100.00;97994.25;5051783;28;20234;-71
2022/06/29 01:57:53;;;;;;;7.37;6.20;;;;;;;17.16;100.00;97987.25;5053518;28;20212;-71
2022/06/29 02:00:19;;;;;;;6.30;5.80;;;;;;;17.13;100.00;97985.72;5053351;28;20215;-71
2022/06/29 02:02:46;;;;;;;6.03;5.43;;;;;;;17.09;100.00;97992.38;5053291;28;20215;-71
2022/06/29 02:05:14;;;;;;;6.37;5.87;;;;;;;17.08;100.00;97993.31;5052814;28;20670;-71
2022/06/29 02:07:40;;;;;;;6.10;5.50;;;;;;;17.08;100.00;97979.97;5053145;28;20303;-71
2022/06/29 02:10:08;;;;;;;6.90;6.27;;;;;;;17.09;100.00;97981.69;5052998;28;20303;-71
2022/06/29 02:12:35;;;;;;;7.07;6.27;;;;;;;17.16;100.00;97980.09;5052953;28;20239;-71
2022/06/29 02:15:03;;;;;;;6.83;6.23;;;;;;;17.18;100.00;97972.75;5053131;28;20220;-70
2022/06/29 02:17:29;;;;;;;6.80;6.10;;;;;;;17.16;100.00;97982.75;5053123;28;20215;-70
2022/06/29 02:19:55;;;;;;;6.77;6.13;;;;;;;17.20;100.00;97983.28;5052737;28;20215;-70
2022/06/29 02:22:22;;;;;;;6.90;6.20;;;;;;;17.25;100.00;97979.16;5051314;28;20218;-70
2022/06/29 02:24:49;;;;;;;6.17;5.67;;;;;;;17.28;100.00;97981.56;5052887;28;20212;-70
2022/06/29 02:27:15;;;;;;;8.57;7.77;;;;;;;17.31;100.00;97975.06;5052794;28;20215;-70
2022/06/29 02:29:42;;;;;;;8.73;7.20;;;;;;;17.30;100.00;97968.88;5052977;28;20219;-70
2022/06/29 02:34:53;;;;;;;6.77;6.17;;;;;;;17.31;100.00;97946.50;5046588;28;20604;-71
2022/06/29 02:37:20;;;;;;;6.57;5.83;;;;;;;17.30;100.00;97939.50;5052541;28;20694;-72
2022/06/29 02:39:47;;;;;;;6.60;5.90;;;;;;;17.26;100.00;97938.09;5052822;28;20223;-72
2022/06/29 02:42:14;;;;;;;6.53;5.93;;;;;;;17.22;100.00;97935.91;5055036;28;20224;-72
2022/06/29 02:44:41;;;;;;;6.63;6.07;;;;;;;17.16;100.00;97937.34;5056921;28;20273;-72
2022/06/29 02:47:10;;;;;;;6.50;5.77;;;;;;;17.12;100.00;97935.16;5055322;28;20216;-71
2022/06/29 02:49:37;;;;;;;6.50;6.00;;;;;;;17.09;100.00;97930.94;5056849;28;20218;-70
2022/06/29 02:52:04;;;;;;;6.97;6.37;;;;;;;17.02;100.00;97937.84;5056461;28;20239;-71
2022/06/29 02:54:31;;;;;;;6.80;6.20;;;;;;;16.98;100.00;97944.50;5056782;28;20312;-70
2022/06/29 02:56:57;;;;;;;6.80;6.27;;;;;;;16.90;100.00;97947.09;5056895;28;20299;-70
2022/06/29 02:59:24;;;;;;;6.87;6.17;;;;;;;16.84;100.00;97945.03;5056416;28;20212;-70
2022/06/29 03:01:50;;;;;;;7.23;5.90;;;;;;;16.84;100.00;97939.69;5056462;28;20251;-70
2022/06/29 03:04:19;;;;;;;7.27;6.00;;;;;;;16.83;100.00;97943.31;5056313;28;20301;-70
2022/06/29 03:06:46;;;;;;;7.07;6.47;;;;;;;16.84;100.00;97942.34;5056684;28;20220;-70
2022/06/29 03:09:12;;;;;;;7.10;6.40;;;;;;;16.85;100.00;97949.38;5056266;28;20369;-71
2022/06/29 03:11:39;;;;;;;6.87;6.17;;;;;;;16.83;100.00;97951.31;5056070;28;20258;-70
2022/06/29 03:14:05;;;;;;;6.80;6.20;;;;;;;16.86;100.00;97944.84;5054750;28;20569;-71
2022/06/29 03:16:32;;;;;;;7.17;6.47;;;;;;;16.82;100.00;97954.97;5055921;28;20231;-70
2022/06/29 03:18:58;;;;;;;6.83;6.17;;;;;;;16.78;100.00;97947.44;5056347;28;20213;-71
2022/06/29 03:21:26;;;;;;;6.33;5.73;;;;;;;16.74;100.00;97949.56;5056221;28;20212;-71
2022/06/29 03:23:53;;;;;;;6.60;6.10;;;;;;;16.71;100.00;97947.16;5056283;28;20216;-70
2022/06/29 03:26:20;;;;;;;7.27;6.57;;;;;;;16.74;100.00;97941.56;5056300;28;20212;-70
2022/06/29 03:28:48;;;;;;;7.37;6.73;;;;;;;16.81;100.00;97942.63;5055873;28;20212;-71
2022/06/29 03:31:14;;;;;;;7.20;6.60;;;;;;;16.86;100.00;97952.84;5055765;28;20307;-70
2022/06/29 03:33:41;;;;;;;7.23;6.60;;;;;;;16.89;100.00;97945.38;5055887;28;20232;-71
2022/06/29 03:36:08;;;;;;;7.33;6.70;;;;;;;16.89;100.00;97945.38;5055894;28;20222;-71
2022/06/29 03:38:36;;;;;;;6.60;6.00;;;;;;;16.90;100.00;97940.91;5055560;28;20259;-70
2022/06/29 03:41:02;;;;;;;7.80;6.53;;;;;;;16.90;100.00;97936.41;5055053;28;20215;-70
2022/06/29 03:43:29;;;;;;;6.67;6.07;;;;;;;16.92;100.00;97936.25;5055854;28;20208;-70
2022/06/29 03:45:56;;;;;;;8.23;7.27;;;;;;;16.93;100.00;97933.44;5055675;28;20219;-71
2022/06/29 03:48:22;;;;;;;7.00;6.30;;;;;;;16.93;100.00;97921.91;5055368;28;20690;-71
2022/06/29 03:50:49;;;;;;;7.23;6.63;;;;;;;16.96;100.00;97926.94;5055214;28;20222;-70
2022/06/29 03:53:15;;;;;;;7.30;6.70;;;;;;;17.01;100.00;97922.81;5055201;28;20231;-70
2022/06/29 03:55:43;;;;;;;7.27;6.67;;;;;;;17.04;100.00;97922.53;5055559;28;20208;-70
2022/06/29 03:58:10;;;;;;;7.50;6.80;;;;;;;17.06;100.00;97928.56;5055545;28;20216;-70
2022/06/29 04:00:37;;;;;;;7.27;6.67;;;;;;;17.06;100.00;97930.41;5055376;28;20574;-70
2022/06/29 04:03:03;;;;;;;7.50;6.90;;;;;;;17.05;100.00;97926.88;5055616;28;20258;-70
2022/06/29 04:05:30;;;;;;;7.90;7.20;;;;;;;17.10;100.00;97929.94;5053777;28;20212;-70
2022/06/29 04:07:56;;;;;;;7.97;7.27;;;;;;;17.12;100.00;97935.97;5055149;28;20556;-70
2022/06/29 04:10:23;;;;;;;8.33;7.53;;;;;;;17.12;100.00;97938.63;5059121;28;20216;-70
2022/06/29 04:12:51;;;;;;;7.97;7.23;;;;;;;17.13;100.00;97934.97;5055434;28;20717;-70
2022/06/29 04:15:17;;;;;;;8.70;7.80;;;;;;;17.15;100.00;97938.34;5055170;28;20219;-70
2022/06/29 04:17:44;;;;;;;7.60;6.73;;;;;;;17.18;100.00;97931.88;5055029;28;20590;-70
2022/06/29 04:21:05;;;;;;;8.63;6.93;;;;;;;17.19;100.00;97938.88;5054831;28;20212;-71
2022/06/29 04:23:01;;;;;;;7.80;6.57;;;;;;;17.23;100.00;97942.91;5045933;28;20563;-70
2022/06/29 04:25:28;;;;;;;7.50;6.43;;;;;;;17.28;100.00;97941.50;5054979;28;20216;-70
2022/06/29 04:27:56;;;;;;;7.93;7.00;;;;;;;17.29;100.00;97943.16;5054894;28;20208;-70
2022/06/29 04:30:23;;;;;;;7.30;6.60;;;;;;;17.31;100.00;97941.16;5054641;28;20218;-70
2022/06/29 04:32:49;;;;;;;8.03;7.07;;;;;;;17.32;100.00;97937.50;5053061;28;20232;-70
2022/06/29 04:35:16;;;;;;;7.70;6.70;;;;;;;17.38;100.00;97939.59;5054538;28;20226;-70
2022/06/29 04:37:43;;;;;;;10.67;7.57;;;;;;;17.40;100.00;97936.78;5054515;28;20255;-70
2022/06/29 04:40:11;;;;;;;8.90;7.40;;;;;;;17.44;100.00;97936.31;5054795;28;20218;-70
2022/06/29 04:42:37;;;;;;;8.60;7.80;;;;;;;17.49;100.00;97941.22;5054405;28;20212;-70
2022/06/29 04:45:06;;;;;;;8.60;7.80;;;;;;;17.53;100.00;97943.44;5054556;28;20222;-70
2022/06/29 04:47:33;;;;;;;10.17;8.53;;;;;;;17.61;100.00;97943.47;5054609;28;20216;-70
2022/06/29 04:49:59;;;;;;;8.87;8.10;;;;;;;17.68;100.00;97944.53;5054491;28;20212;-70
2022/06/29 04:52:26;;;;;;;9.77;8.87;;;;;;;17.77;100.00;97943.63;5054334;28;20236;-70
2022/06/29 04:54:52;;;;;;;9.50;8.60;;;;;;;17.87;100.00;97943.53;5054468;28;20265;-70
2022/06/29 04:57:19;;;;;;;9.47;8.50;;;;;;;17.96;100.00;97943.44;5052680;28;20238;-70
2022/06/29 04:59:46;;;;;;;9.10;8.30;;;;;;;18.14;100.00;97933.53;5054351;28;20311;-70
2022/06/29 05:02:13;;;;;;;9.03;8.27;;;;;;;18.25;100.00;97938.63;5054044;28;20260;-70
2022/06/29 05:04:40;;;;;;;9.10;8.30;;;;;;;18.56;100.00;97938.97;5053341;28;20208;-70
2022/06/29 05:07:06;;;;;;;8.90;8.10;;;;;;;18.86;100.00;97938.44;5054229;28;20212;-70
2022/06/29 05:09:33;;;;;;;8.60;7.80;;;;;;;18.89;100.00;97949.66;5053954;28;20220;-70
2022/06/29 05:11:59;;;;;;;9.17;8.27;;;;;;;18.92;100.00;97949.34;5053843;28;20212;-70
2022/06/29 05:14:26;;;;;;;8.90;8.20;;;;;;;19.01;100.00;97942.19;5053693;28;20250;-70
2022/06/29 05:16:53;;;;;;;8.50;7.80;;;;;;;19.16;100.00;97938.72;5053903;28;20208;-70
2022/06/29 05:19:21;;;;;;;8.97;8.20;;;;;;;19.12;100.00;97940.03;5053943;28;20216;-70
2022/06/29 05:21:47;;;;;;;8.80;8.00;;;;;;;19.03;100.00;97950.88;5043439;28;20220;-70
2022/06/29 05:24:13;;;;;;;9.20;8.40;;;;;;;18.94;100.00;97958.06;5052016;28;20223;-70
2022/06/29 05:26:42;;;;;;;9.17;8.37;;;;;;;18.89;100.00;97956.88;5056600;28;20220;-70
2022/06/29 05:29:08;;;;;;;8.23;7.43;;;;;;;18.90;100.00;97962.06;5053486;28;20223;-70
2022/06/29 05:31:35;;;;;;;8.57;7.83;;;;;;;18.92;100.00;97948.50;5042637;28;20219;-70
2022/06/29 05:34:01;;;;;;;8.23;7.43;;;;;;;18.90;100.00;97945.16;5053598;28;20239;-70
2022/06/29 05:36:29;;;;;;;8.20;7.50;;;;;;;18.89;100.00;97949.66;5053683;28;20226;-70
2022/06/29 05:38:56;;;;;;;8.37;7.67;;;;;;;18.88;100.00;97947.13;5053294;28;20236;-70
2022/06/29 05:41:22;;;;;;;7.97;7.20;;;;;;;18.89;100.00;97960.38;5053466;28;20211;-70
2022/06/29 05:43:51;;;;;;;8.13;7.37;;;;;;;18.94;100.00;97951.84;5053343;28;20212;-70
2022/06/29 05:46:19;;;;;;;7.40;6.80;;;;;;;19.05;100.00;97955.09;5040585;28;20255;-70
2022/06/29 05:48:45;;;;;;;7.80;7.10;;;;;;;19.33;100.00;97964.56;5039165;28;20219;-70
2022/06/29 05:51:12;;;;;;;8.20;7.40;;;;;;;19.53;100.00;97960.59;5050877;28;20691;-70
2022/06/29 05:53:40;;;;;;;7.90;7.27;;;;;;;19.86;100.00;97966.78;5051825;28;20232;-70
2022/06/29 05:56:07;;;;;;;7.73;7.10;;;;;;;20.08;100.00;97961.66;5051806;28;20310;-69
2022/06/29 05:58:33;;;;;;;7.33;6.73;;;;;;;20.13;100.00;97953.94;5051958;28;20223;-71
2022/06/29 06:01:00;;;;;;;7.23;6.63;;;;;;;20.21;100.00;97951.22;5051792;28;20220;-69
2022/06/29 06:03:26;;;;;;;7.53;6.83;;;;;;;20.95;100.00;97951.69;5051763;28;20216;-69
2022/06/29 06:05:53;;;;;;;7.60;6.93;;;;;;;22.04;96.68;97954.03;5051482;28;20214;-70
2022/06/29 06:08:19;;;;;;;7.20;6.60;;;;;;;23.47;86.93;97948.00;5050067;28;20600;-69
2022/06/29 06:10:47;;;;;;;6.90;6.30;;;;;;;24.71;79.62;97952.72;5033821;28;20243;-70
2022/06/29 06:13:14;;;;;;;6.20;5.70;;;;;;;25.05;76.03;97955.38;5034095;28;20239;-70
2022/06/29 06:15:40;;;;;;;6.67;6.07;;;;;;;24.90;74.53;97954.69;5032581;28;20208;-69
2022/06/29 06:18:07;;;;;;;6.70;6.00;;;;;;;25.14;73.81;97956.88;5035895;28;20228;-70
2022/06/29 06:20:34;;;;;;;6.07;5.60;;;;;;;25.19;73.06;97953.56;5033833;28;20221;-70
2022/06/29 06:23:00;;;;;;;6.13;5.63;;;;;;;24.65;75.49;97950.81;5033587;28;20232;-69
2022/06/29 06:25:27;;;;;;;7.00;6.40;;;;;;;24.04;77.72;97950.69;5032246;28;20215;-70
2022/06/29 06:27:55;;;;;;;6.60;6.03;;;;;;;23.38;80.33;97953.72;5033173;28;20216;-69
2022/06/29 06:30:22;;;;;;;6.63;5.93;;;;;;;22.99;82.44;97954.03;5031675;28;20682;-70
2022/06/29 06:32:48;;;;;;;6.90;6.20;;;;;;;23.37;81.66;97958.28;5033774;28;20219;-70
2022/06/29 06:35:15;;;;;;;7.77;6.30;;;;;;;24.25;76.45;97959.59;5048003;28;20354;-71
2022/06/29 06:37:42;;;;;;;5.83;5.33;;;;;;;25.54;70.05;97949.78;5051421;28;20248;-71
2022/06/29 06:42:56;;;;;;;5.87;5.43;;;;;;;27.39;60.86;97953.66;5049918;28;20285;-71
2022/06/29 06:45:23;;;;;;;6.77;5.77;;;;;;;27.97;58.44;97955.25;5051480;28;20239;-71
2022/06/29 06:47:50;;;;;;;6.83;5.80;;;;;;;28.04;57.34;97966.06;5051460;28;20220;-71
2022/06/29 06:50:17;;;;;;;5.80;5.23;;;;;;;28.25;57.46;97965.72;5051250;28;20672;-71
2022/06/29 06:52:43;;;;;;;6.40;5.17;;;;;;;27.92;58.24;97965.09;5051307;28;20218;-71
2022/06/29 06:55:10;;;;;;;6.00;5.40;;;;;;;28.12;56.23;97960.38;5051286;28;20219;-71
2022/06/29 06:57:37;;;;;;;6.77;4.93;;;;;;;28.31;55.56;97953.97;5051335;28;20216;-71
2022/06/29 07:00:06;;;;;;;6.03;5.30;;;;;;;28.22;55.63;97953.41;5051061;28;20215;-71
2022/06/29 07:02:32;;;;;;;5.30;4.80;;;;;;;28.61;55.79;97957.72;5051378;28;20226;-72
2022/06/29 07:04:59;;;;;;;5.77;5.27;;;;;;;28.99;53.79;97952.94;5051387;28;20615;-71
2022/06/29 07:07:25;;;;;;;6.37;5.10;;;;;;;29.11;53.01;97967.47;5050976;28;20772;-71
2022/06/29 07:09:52;;;;;;;8.50;5.80;;;;;;;29.12;52.82;97966.41;5049776;28;20219;-71
2022/06/29 07:12:18;;;;;;;6.17;5.57;;;;;;;28.85;53.64;97970.44;5050826;28;20215;-71
2022/06/29 07:14:45;;;;;;;5.60;5.10;;;;;;;28.43;55.81;97965.81;5050811;28;20242;-71
2022/06/29 07:17:13;;;;;;;5.30;4.83;;;;;;;27.83;58.04;97966.44;5050798;28;20334;-71
2022/06/29 07:19:39;;;;;;;5.90;5.30;;;;;;;26.82;62.09;97971.78;5051105;28;20224;-70
2022/06/29 07:22:06;;;;;;;5.40;4.90;;;;;;;25.89;65.92;97962.97;5051052;28;20208;-70
2022/06/29 07:24:32;;;;;;;7.87;5.80;;;;;;;25.24;69.00;97968.19;5050961;28;20299;-71
2022/06/29 07:26:59;;;;;;;6.73;6.13;;;;;;;24.65;73.36;97967.00;5050646;28;20222;-71
2022/06/29 07:29:26;;;;;;;6.13;5.63;;;;;;;24.38;75.32;97970.50;5055055;28;20215;-71
2022/06/29 07:31:52;;;;;;;5.67;5.20;;;;;;;24.29;76.42;97960.91;5053834;28;20219;-71
2022/06/29 07:34:20;;;;;;;6.60;5.90;;;;;;;24.20;77.39;97961.22;5053961;28;20238;-71
2022/06/29 07:36:47;;;;;;;8.60;7.70;;;;;;;24.10;79.26;97975.06;5049938;28;20318;-71
2022/06/29 07:39:13;;;;;;;7.20;6.60;;;;;;;23.97;79.56;97968.69;5054171;28;20299;-71
2022/06/29 07:41:41;;;;;;;6.57;6.07;;;;;;;23.96;78.30;97967.84;5054943;28;20219;-71
2022/06/29 07:44:07;;;;;;;7.40;6.73;;;;;;;24.04;78.70;97966.91;5054206;28;20212;-71
2022/06/29 07:46:34;;;;;;;8.00;7.30;;;;;;;24.02;78.31;97964.38;5054129;28;20208;-70
2022/06/29 07:49:01;;;;;;;7.00;6.40;;;;;;;23.99;78.72;97969.34;5054600;28;20216;-70
2022/06/29 07:51:29;;;;;;;6.70;6.07;;;;;;;24.05;77.08;97969.41;5053011;28;20216;-70
2022/06/29 07:53:55;;;;;;;7.27;5.87;;;;;;;24.10;77.08;97964.28;5051151;28;20733;-71
2022/06/29 07:56:22;;;;;;;6.77;6.20;;;;;;;24.15;77.74;97959.09;5052921;28;20723;-70
2022/06/29 07:58:48;;;;;;;6.17;5.67;;;;;;;24.27;78.45;97957.53;5053529;28;20212;-70
2022/06/29 08:01:15;;;;;;;7.83;7.23;;;;;;;24.36;77.01;97959.06;5052112;28;20235;-70
2022/06/29 08:03:41;;;;;;;7.43;6.43;;;;;;;24.35;77.46;97970.06;5049286;28;20212;-70
2022/06/29 08:06:09;;;;;;;8.00;7.23;;;;;;;24.43;77.11;97967.22;5053047;28;20216;-70
2022/06/29 08:08:37;;;;;;;9.90;7.33;;;;;;;24.42;77.48;97961.00;5052450;28;20248;-71
2022/06/29 08:11:06;;;;;;;6.57;6.00;;;;;;;24.44;78.76;97963.50;5053514;28;20760;-71
2022/06/29 08:13:33;;;;;;;7.63;6.93;;;;;;;24.55;78.23;97955.69;5053652;28;20243;-71
2022/06/29 08:15:59;;;;;;;8.03;7.23;;;;;;;24.59;75.35;97962.41;5053536;28;20208;-72
2022/06/29 08:18:26;;;;;;;6.77;6.17;;;;;;;24.58;75.99;97955.34;5054151;28;20212;-73
2022/06/29 08:20:52;;;;;;;6.37;5.87;;;;;;;24.61;75.54;97949.50;5052270;28;20224;-73
2022/06/29 08:23:19;;;;;;;6.80;6.20;;;;;;;24.80;74.93;97954.22;5051157;28;20215;-72
2022/06/29 08:25:47;;;;;;;6.40;5.90;;;;;;;24.89;74.02;97963.84;5052668;28;20485;-72
2022/06/29 08:28:13;;;;;;;6.33;5.73;;;;;;;24.97;71.87;97949.28;5051510;28;20212;-71
2022/06/29 08:30:40;;;;;;;6.43;5.53;;;;;;;25.04;73.12;97952.88;5047620;28;20303;-74
2022/06/29 08:33:07;;;;;;;5.90;5.30;;;;;;;25.07;71.63;97950.63;5052098;28;20247;-73
2022/06/29 08:35:34;;;;;;;6.13;5.63;;;;;;;25.12;69.85;97947.31;5051995;28;20235;-73
2022/06/29 08:38:02;;;;;;;6.10;5.53;;;;;;;25.08;68.46;97951.44;5051667;28;20614;-74
2022/06/29 08:40:42;;;;;;;5.57;5.17;;;;;;;25.07;62.72;97947.06;5050617;28;21114;-73
2022/06/29 08:43:12;;;;;;;5.63;5.13;;;;;;;24.91;65.98;97944.69;5048744;28;20216;-72
2022/06/29 08:45:42;;;;;;;6.40;5.80;;;;;;;24.90;67.59;97941.16;5037884;28;20212;-72
2022/06/29 08:48:09;;;;;;;6.30;5.80;;;;;;;24.86;68.81;97948.00;5052680;28;20216;-72
2022/06/29 08:50:37;;;;;;;6.10;5.60;;;;;;;24.96;69.76;97948.47;5052055;28;20621;-72
2022/06/29 08:53:06;;;;;;;6.50;6.00;;;;;;;25.06;67.11;97946.22;5051305;28;20214;-72
2022/06/29 08:55:37;;;;;;;5.63;5.20;;;;;;;25.20;67.54;97950.69;5050802;28;20256;-72
2022/06/29 08:58:04;;;;;;;5.50;5.00;;;;;;;25.39;69.37;97944.53;5052021;28;20303;-72
2022/06/29 09:00:36;;;;;;;5.87;5.30;;;;;;;25.52;65.75;97949.97;5051472;28;20215;-72
2022/06/29 09:03:03;;;;;;;5.40;4.90;;;;;;;25.66;64.71;97938.13;5052231;28;20557;-72
2022/06/29 09:05:29;;;;;;;6.20;5.70;;;;;;;25.68;62.48;97933.38;5052160;28;20212;-72
2022/06/29 09:07:56;;;;;;;5.77;5.30;;;;;;;25.73;61.80;97936.28;5050930;28;20293;-72
2022/06/29 09:10:23;;;;;;;5.10;4.67;;;;;;;25.53;62.22;97934.59;5051783;28;20239;-72
2022/06/29 09:12:52;;;;;;;6.13;5.60;;;;;;;25.49;61.83;97934.13;5051825;28;20678;-72
2022/06/29 09:15:31;;;;;;;5.40;5.00;;;;;;;25.50;65.65;97933.13;5051065;28;20346;-72
2022/06/29 09:17:59;;;;;;;6.37;5.87;;;;;;;25.62;62.42;97933.34;5051696;28;20212;-73
2022/06/29 09:20:37;;;;;;;5.70;5.20;;;;;;;25.47;63.79;97925.41;5051452;28;20222;-72
2022/06/29 09:23:04;;;;;;;5.80;5.30;;;;;;;25.51;65.37;97926.66;5036361;28;20216;-73
2022/06/29 09:25:32;;;;;;;5.63;5.13;;;;;;;25.63;64.07;97921.47;5051725;28;20212;-73
2022/06/29 09:27:59;;;;;;;5.07;4.67;;;;;;;25.62;63.06;97928.78;5049299;28;20216;-73
2022/06/29 09:30:27;;;;;;;5.73;5.27;;;;;;;25.72;65.26;97923.78;5050507;28;20216;-73
2022/06/29 09:33:04;;;;;;;5.57;4.83;;;;;;;25.89;66.33;97919.66;5047230;28;20238;-73
2022/06/29 09:35:31;;;;;;;5.47;4.60;;;;;;;26.22;65.34;97925.13;5050609;28;20698;-73
2022/06/29 09:38:22;;;;;;;7.30;6.60;;;;;;;26.57;64.59;97929.28;5050866;28;20266;-73
2022/06/29 09:41:02;;;;;;;5.10;4.60;;;;;;;26.66;61.56;97923.44;5039973;28;20218;-73
2022/06/29 09:43:30;;;;;;;4.80;4.40;;;;;;;26.96;59.56;97923.75;5049854;28;20219;-73
2022/06/29 09:45:57;;;;;;;5.47;4.97;;;;;;;27.22;58.62;97927.25;5050467;28;20220;-73
2022/06/29 09:48:27;;;;;;;4.67;4.30;;;;;;;27.41;60.65;97923.59;5049746;28;20251;-73
2022/06/29 09:50:56;;;;;;;4.37;4.07;;;;;;;27.62;58.77;97932.25;5048538;28;20248;-73
2022/06/29 09:53:26;;;;;;;4.70;4.30;;;;;;;27.83;59.06;97931.13;5050716;28;20591;-73
2022/06/29 09:55:57;;;;;;;4.17;3.73;;;;;;;27.95;60.10;97937.50;5047948;28;20236;-72
2022/06/29 09:58:36;;;;;;;4.40;4.00;;;;;;;28.05;56.38;97933.25;5038449;28;20876;-73
2022/06/29 10:03:55;;;;;;;4.43;4.03;;;;;;;28.53;58.65;97933.50;5050499;28;20215;-73
2022/06/29 10:06:22;;;;;;;4.20;3.83;;;;;;;28.94;58.29;97930.97;5050180;28;20212;-73
2022/06/29 10:08:49;;;;;;;3.63;3.42;;;;;;;29.34;54.80;97924.06;5050697;28;20211;-73
2022/06/29 10:14:19;;;;;;;3.55;3.25;;;;;;;29.46;52.36;97927.66;5038737;28;20234;-73
2022/06/29 10:16:50;;;;;;;3.53;3.22;;;;;;;29.48;52.21;97928.25;5049502;28;20250;-73
2022/06/29 10:19:31;;;;;;;3.75;3.45;;;;;;;29.34;50.13;97913.16;5050675;28;20299;-73
2022/06/29 10:21:59;;;;;;;4.70;3.70;;;;;;;29.02;52.69;97926.09;5049407;28;20576;-74
2022/06/29 10:24:26;;;;;;;3.88;3.53;;;;;;;28.76;51.03;97925.53;5050898;28;20231;-73
2022/06/29 10:26:53;;;;;;;3.83;3.30;;;;;;;28.67;52.35;97926.88;5050865;28;20242;-73
2022/06/29 10:29:36;;;;;;;3.40;3.10;;;;;;;28.41;52.57;97927.97;5049833;28;20592;-72
2022/06/29 10:32:13;;;;;;;4.30;3.40;;;;;;;28.18;52.09;97926.88;5039599;28;20216;-74
2022/06/29 10:37:27;;;;;;;4.85;4.45;;;;;;;27.63;54.96;97922.25;5049881;28;20716;-74
2022/06/29 10:39:55;;;;;;;5.47;4.47;;;;;;;27.38;55.95;97929.44;5047007;28;20592;-74
2022/06/29 10:45:35;;;;;;;4.67;4.20;;;;;;;27.08;56.34;97918.28;5041229;28;20250;-73
2022/06/29 10:48:24;;;;;;;4.70;4.30;;;;;;;26.98;56.89;97910.81;5045919;28;20303;-73
2022/06/29 10:50:52;;;;;;;4.67;4.30;;;;;;;27.03;56.82;97911.84;5040482;28;20221;-74
2022/06/29 10:53:21;;;;;;;5.00;4.50;;;;;;;27.27;57.51;97922.00;5049529;28;20219;-72
2022/06/29 10:55:50;;;;;;;4.37;3.97;;;;;;;27.55;57.32;97917.03;5037177;28;20737;-73
2022/06/29 10:58:18;;;;;;;4.87;4.30;;;;;;;27.80;55.45;97920.69;5038404;28;20582;-73
2022/06/29 11:00:46;;;;;;;5.47;4.97;;;;;;;27.69;54.83;97921.38;5041182;28;20307;-73
2022/06/29 11:03:14;;;;;;;5.90;4.97;;;;;;;27.71;55.75;97919.25;5043375;28;20216;-72
2022/06/29 11:13:56;;;;;;;5.20;4.80;;;;;;;27.50;55.46;97911.44;5041481;28;20227;-72
2022/06/29 11:16:28;;;;;;;4.90;4.50;;;;;;;27.70;55.03;97912.16;5044106;28;20240;-72
2022/06/29 11:18:55;;;;;;;4.80;4.40;;;;;;;27.77;55.02;97910.25;5053496;28;20739;-73
2022/06/29 11:21:22;;;;;;;4.57;4.17;;;;;;;27.93;55.03;97909.72;5041473;28;20304;-72
2022/06/29 11:23:56;;;;;;;4.83;4.40;;;;;;;27.95;54.23;97905.72;5041539;28;20217;-72
2022/06/29 11:26:23;;;;;;;5.10;4.67;;;;;;;27.94;54.96;97903.25;5042571;28;20211;-72
2022/06/29 11:28:50;;;;;;;4.80;4.40;;;;;;;27.96;54.61;97901.13;5044141;28;20590;-73
2022/06/29 11:31:18;;;;;;;6.13;4.53;;;;;;;27.97;54.32;97903.63;5046442;28;20211;-74
2022/06/29 11:33:47;;;;;;;4.80;4.40;;;;;;;27.95;55.20;97904.91;5054789;28;20299;-74
2022/06/29 11:36:16;;;;;;;4.83;4.03;;;;;;;28.07;54.68;97898.53;5049974;28;20242;-74
2022/06/29 11:38:44;;;;;;;4.97;4.20;;;;;;;28.13;55.29;97894.91;5042864;28;20710;-72
2022/06/29 11:41:14;;;;;;;4.50;4.10;;;;;;;28.35;55.84;97898.06;5054457;28;20212;-72
2022/06/29 11:43:41;;;;;;;4.30;3.93;;;;;;;28.63;54.99;97887.59;5054229;28;20219;-73
2022/06/29 11:46:18;;;;;;;4.03;3.70;;;;;;;28.81;54.78;97893.03;5054146;28;20482;-74
2022/06/29 11:51:30;;;;;;;4.63;3.97;;;;;;;29.28;53.28;97884.13;5053465;28;20212;-75
2022/06/29 11:54:01;;;;;;;4.88;4.03;;;;;;;29.44;51.46;97888.91;5053813;28;20216;-73
2022/06/29 11:56:31;;;;;;;4.55;3.90;;;;;;;29.33;50.27;97885.09;5042380;28;20239;-75
2022/06/29 11:59:01;;;;;;;4.47;4.07;;;;;;;29.25;50.11;97882.69;5053982;28;20222;-75
2022/06/29 12:01:28;;;;;;;4.40;3.95;;;;;;;29.24;49.48;97874.75;5054095;28;20218;-75